sensor_id;sensor_type;location;lat;lon;timestamp;pressure;altitude;pressure_sealevel;temperature;humidity
72548;BME280;60570;50.848;6.776;2023-12-20T00:00:13;100460.38;;;9.69;72.46
72548;BME280;60570;50.848;6.776;2023-12-20T00:01:15;100462.66;;;9.67;72.73
72548;BME280;60570;50.848;6.776;2023-12-20T00:02:16;100455.16;;;9.67;72.51
72548;BME280;60570;50.848;6.776;2023-12-20T00:03:16;100461.19;;;9.69;72.73
72548;BME280;60570;50.848;6.776;2023-12-20T00:04:18;100466.56;;;9.66;72.56
72548;BME280;60570;50.848;6.776;2023-12-20T00:05:19;100463.00;;;9.65;72.53
72548;BME280;60570;50.848;6.776;2023-12-20T00:06:19;100475.69;;;9.66;72.84
72548;BME280;60570;50.848;6.776;2023-12-20T00:07:21;100467.53;;;9.70;72.39
72548;BME280;60570;50.848;6.776;2023-12-20T00:08:22;100463.47;;;9.67;72.40
72548;BME280;60570;50.848;6.776;2023-12-20T00:09:23;100454.34;;;9.67;72.45
72548;BME280;60570;50.848;6.776;2023-12-20T00:10:24;100454.00;;;9.68;72.35
72548;BME280;60570;50.848;6.776;2023-12-20T00:11:26;100460.38;;;9.69;72.67
72548;BME280;60570;50.848;6.776;2023-12-20T00:12:26;100459.06;;;9.66;72.62
72548;BME280;60570;50.848;6.776;2023-12-20T00:13:28;100463.13;;;9.69;72.49
72548;BME280;60570;50.848;6.776;2023-12-20T00:14:30;100453.50;;;9.66;72.38
72548;BME280;60570;50.848;6.776;2023-12-20T00:15:31;100454.34;;;9.67;72.56
72548;BME280;60570;50.848;6.776;2023-12-20T00:16:32;100461.97;;;9.70;72.38
72548;BME280;60570;50.848;6.776;2023-12-20T00:17:33;100463.97;;;9.69;72.54
72548;BME280;60570;50.848;6.776;2023-12-20T00:18:35;100457.59;;;9.69;72.46
72548;BME280;60570;50.848;6.776;2023-12-20T00:19:35;100471.94;;;9.71;72.57
72548;BME280;60570;50.848;6.776;2023-12-20T00:20:37;100460.03;;;9.70;72.40
72548;BME280;60570;50.848;6.776;2023-12-20T00:21:38;100458.72;;;9.68;72.74
72548;BME280;60570;50.848;6.776;2023-12-20T00:22:39;100463.13;;;9.69;72.57
72548;BME280;60570;50.848;6.776;2023-12-20T00:23:40;100459.53;;;9.68;73.16
72548;BME280;60570;50.848;6.776;2023-12-20T00:24:42;100467.38;;;9.66;73.00
72548;BME280;60570;50.848;6.776;2023-12-20T00:25:42;100474.56;;;9.67;72.65
72548;BME280;60570;50.848;6.776;2023-12-20T00:26:44;100478.13;;;9.68;72.54
72548;BME280;60570;50.848;6.776;2023-12-20T00:27:45;100476.53;;;9.67;72.57
72548;BME280;60570;50.848;6.776;2023-12-20T00:28:46;100475.22;;;9.64;72.54
72548;BME280;60570;50.848;6.776;2023-12-20T00:29:48;100476.03;;;9.65;72.84
72548;BME280;60570;50.848;6.776;2023-12-20T00:30:50;100468.53;;;9.65;72.96
72548;BME280;60570;50.848;6.776;2023-12-20T00:31:51;100474.09;;;9.65;72.88
72548;BME280;60570;50.848;6.776;2023-12-20T00:32:52;100467.38;;;9.66;72.65
72548;BME280;60570;50.848;6.776;2023-12-20T00:33:53;100470.16;;;9.66;72.88
72548;BME280;60570;50.848;6.776;2023-12-20T00:34:55;100470.50;;;9.65;72.69
72548;BME280;60570;50.848;6.776;2023-12-20T00:35:55;100468.84;;;9.64;73.23
72548;BME280;60570;50.848;6.776;2023-12-20T00:36:57;100480.13;;;9.67;72.97
72548;BME280;60570;50.848;6.776;2023-12-20T00:37:58;100477.34;;;9.67;73.01
72548;BME280;60570;50.848;6.776;2023-12-20T00:38:59;100474.56;;;9.67;73.04
72548;BME280;60570;50.848;6.776;2023-12-20T00:40:00;100466.25;;;9.67;72.98
72548;BME280;60570;50.848;6.776;2023-12-20T00:41:03;100465.44;;;9.67;73.12
72548;BME280;60570;50.848;6.776;2023-12-20T00:42:04;100459.88;;;9.67;73.12
72548;BME280;60570;50.848;6.776;2023-12-20T00:43:05;100464.75;;;9.70;72.94
72548;BME280;60570;50.848;6.776;2023-12-20T00:44:06;100464.75;;;9.70;72.84
72548;BME280;60570;50.848;6.776;2023-12-20T00:45:10;100472.75;;;9.71;72.83
72548;BME280;60570;50.848;6.776;2023-12-20T00:46:10;100469.16;;;9.71;72.88
72548;BME280;60570;50.848;6.776;2023-12-20T00:47:12;100470.31;;;9.70;72.60
72548;BME280;60570;50.848;6.776;2023-12-20T00:48:13;100462.31;;;9.68;72.47
72548;BME280;60570;50.848;6.776;2023-12-20T00:49:14;100465.44;;;9.67;73.04
72548;BME280;60570;50.848;6.776;2023-12-20T00:50:16;100472.59;;;9.68;72.98
72548;BME280;60570;50.848;6.776;2023-12-20T00:51:16;100481.41;;;9.70;72.64
72548;BME280;60570;50.848;6.776;2023-12-20T00:52:18;100482.22;;;9.70;72.83
72548;BME280;60570;50.848;6.776;2023-12-20T00:53:19;100484.66;;;9.72;72.70
72548;BME280;60570;50.848;6.776;2023-12-20T00:54:20;100487.75;;;9.70;72.39
72548;BME280;60570;50.848;6.776;2023-12-20T00:55:21;100486.16;;;9.69;72.69
72548;BME280;60570;50.848;6.776;2023-12-20T00:56:23;100485.00;;;9.70;72.64
72548;BME280;60570;50.848;6.776;2023-12-20T00:57:24;100477.50;;;9.71;72.68
72548;BME280;60570;50.848;6.776;2023-12-20T00:58:25;100486.16;;;9.69;72.61
72548;BME280;60570;50.848;6.776;2023-12-20T00:59:28;100491.34;;;9.71;72.61
72548;BME280;60570;50.848;6.776;2023-12-20T01:00:31;100498.19;;;9.73;72.71
72548;BME280;60570;50.848;6.776;2023-12-20T01:01:31;100497.41;;;9.73;72.45
72548;BME280;60570;50.848;6.776;2023-12-20T01:02:33;100501.78;;;9.74;72.62
72548;BME280;60570;50.848;6.776;2023-12-20T01:03:34;100500.16;;;9.73;72.68
72548;BME280;60570;50.848;6.776;2023-12-20T01:04:36;100498.19;;;9.73;72.62
72548;BME280;60570;50.848;6.776;2023-12-20T01:05:37;100491.16;;;9.76;72.33
72548;BME280;60570;50.848;6.776;2023-12-20T01:06:38;100500.66;;;9.75;72.63
72548;BME280;60570;50.848;6.776;2023-12-20T01:07:39;100499.00;;;9.74;72.72
72548;BME280;60570;50.848;6.776;2023-12-20T01:08:41;100491.84;;;9.73;73.04
72548;BME280;60570;50.848;6.776;2023-12-20T01:09:41;100488.59;;;9.71;73.24
72548;BME280;60570;50.848;6.776;2023-12-20T01:10:43;100498.03;;;9.70;73.02
72548;BME280;60570;50.848;6.776;2023-12-20T01:11:44;100494.47;;;9.69;72.92
72548;BME280;60570;50.848;6.776;2023-12-20T01:12:44;100492.97;;;9.72;72.94
72548;BME280;60570;50.848;6.776;2023-12-20T01:13:46;100502.59;;;9.74;73.01
72548;BME280;60570;50.848;6.776;2023-12-20T01:14:47;100488.72;;;9.74;72.77
72548;BME280;60570;50.848;6.776;2023-12-20T01:15:50;100495.41;;;9.73;72.86
72548;BME280;60570;50.848;6.776;2023-12-20T01:16:50;100491.50;;;9.74;72.77
72548;BME280;60570;50.848;6.776;2023-12-20T01:17:52;100502.94;;;9.73;72.64
72548;BME280;60570;50.848;6.776;2023-12-20T01:18:52;100500.16;;;9.73;72.66
72548;BME280;60570;50.848;6.776;2023-12-20T01:19:54;100489.06;;;9.73;73.15
72548;BME280;60570;50.848;6.776;2023-12-20T01:20:55;100494.97;;;9.71;73.01
72548;BME280;60570;50.848;6.776;2023-12-20T01:21:56;100498.03;;;9.70;72.92
72548;BME280;60570;50.848;6.776;2023-12-20T01:22:57;100498.03;;;9.70;72.99
72548;BME280;60570;50.848;6.776;2023-12-20T01:23:59;100494.47;;;9.69;72.88
72548;BME280;60570;50.848;6.776;2023-12-20T01:24:59;100490.88;;;9.69;73.20
72548;BME280;60570;50.848;6.776;2023-12-20T01:26:03;100491.34;;;9.71;72.91
72548;BME280;60570;50.848;6.776;2023-12-20T01:27:05;100486.94;;;9.70;72.58
72548;BME280;60570;50.848;6.776;2023-12-20T01:28:05;100496.91;;;9.71;73.14
72548;BME280;60570;50.848;6.776;2023-12-20T01:29:07;100494.13;;;9.71;73.04
72548;BME280;60570;50.848;6.776;2023-12-20T01:30:08;100500.50;;;9.71;73.08
72548;BME280;60570;50.848;6.776;2023-12-20T01:31:11;100496.09;;;9.70;72.77
72548;BME280;60570;50.848;6.776;2023-12-20T01:32:12;100498.84;;;9.70;73.00
72548;BME280;60570;50.848;6.776;2023-12-20T01:33:12;100502.44;;;9.71;72.77
72548;BME280;60570;50.848;6.776;2023-12-20T01:34:14;100508.00;;;9.71;73.01
72548;BME280;60570;50.848;6.776;2023-12-20T01:35:15;100500.31;;;9.68;73.03
72548;BME280;60570;50.848;6.776;2023-12-20T01:36:15;100505.06;;;9.67;72.91
72548;BME280;60570;50.848;6.776;2023-12-20T01:37:17;100507.84;;;9.67;73.14
72548;BME280;60570;50.848;6.776;2023-12-20T01:38:18;100511.13;;;9.69;72.79
72548;BME280;60570;50.848;6.776;2023-12-20T01:39:20;100505.88;;;9.68;72.94
72548;BME280;60570;50.848;6.776;2023-12-20T01:40:21;100519.09;;;9.62;73.31
72548;BME280;60570;50.848;6.776;2023-12-20T01:41:22;100511.59;;;9.63;73.50
72548;BME280;60570;50.848;6.776;2023-12-20T01:42:23;100508.50;;;9.64;73.25
72548;BME280;60570;50.848;6.776;2023-12-20T01:43:25;100507.84;;;9.67;73.00
72548;BME280;60570;50.848;6.776;2023-12-20T01:44:25;100508.34;;;9.69;72.72
72548;BME280;60570;50.848;6.776;2023-12-20T01:45:27;100517.44;;;9.70;73.08
72548;BME280;60570;50.848;6.776;2023-12-20T01:46:30;100517.44;;;9.70;72.70
72548;BME280;60570;50.848;6.776;2023-12-20T01:47:31;100524.50;;;9.67;72.96
72548;BME280;60570;50.848;6.776;2023-12-20T01:48:33;100528.88;;;9.68;73.03
72548;BME280;60570;50.848;6.776;2023-12-20T01:49:33;100526.09;;;9.68;72.78
72548;BME280;60570;50.848;6.776;2023-12-20T01:50:36;100528.41;;;9.66;73.04
72548;BME280;60570;50.848;6.776;2023-12-20T01:51:37;100531.50;;;9.65;73.12
72548;BME280;60570;50.848;6.776;2023-12-20T01:52:39;100533.94;;;9.66;73.03
72548;BME280;60570;50.848;6.776;2023-12-20T01:53:41;100541.44;;;9.66;73.20
72548;BME280;60570;50.848;6.776;2023-12-20T01:54:43;100537.88;;;9.65;73.45
72548;BME280;60570;50.848;6.776;2023-12-20T01:55:44;100537.88;;;9.65;73.41
72548;BME280;60570;50.848;6.776;2023-12-20T01:56:46;100546.19;;;9.65;72.65
72548;BME280;60570;50.848;6.776;2023-12-20T01:57:47;100539.00;;;9.64;73.08
72548;BME280;60570;50.848;6.776;2023-12-20T01:58:48;100548.16;;;9.65;73.22
72548;BME280;60570;50.848;6.776;2023-12-20T01:59:50;100539.81;;;9.65;72.73
72548;BME280;60570;50.848;6.776;2023-12-20T02:00:51;100540.31;;;9.67;72.93
72548;BME280;60570;50.848;6.776;2023-12-20T02:01:54;100535.88;;;9.66;72.86
72548;BME280;60570;50.848;6.776;2023-12-20T02:02:54;100538.19;;;9.64;72.57
72548;BME280;60570;50.848;6.776;2023-12-20T02:03:56;100548.16;;;9.65;72.64
72548;BME280;60570;50.848;6.776;2023-12-20T02:04:58;100546.19;;;9.65;72.47
72548;BME280;60570;50.848;6.776;2023-12-20T02:05:59;100547.31;;;9.64;72.79
72548;BME280;60570;50.848;6.776;2023-12-20T02:07:01;100545.72;;;9.63;72.46
72548;BME280;60570;50.848;6.776;2023-12-20T02:08:03;100550.44;;;9.63;72.60
72548;BME280;60570;50.848;6.776;2023-12-20T02:09:04;100555.97;;;9.63;72.40
72548;BME280;60570;50.848;6.776;2023-12-20T02:10:06;100554.03;;;9.63;72.25
72548;BME280;60570;50.848;6.776;2023-12-20T02:11:07;100555.66;;;9.64;72.51
72548;BME280;60570;50.848;6.776;2023-12-20T02:12:09;100560.06;;;9.65;72.45
72548;BME280;60570;50.848;6.776;2023-12-20T02:13:09;100553.69;;;9.65;72.29
72548;BME280;60570;50.848;6.776;2023-12-20T02:14:11;100555.66;;;9.64;72.32
72548;BME280;60570;50.848;6.776;2023-12-20T02:15:12;100548.78;;;9.62;72.47
72548;BME280;60570;50.848;6.776;2023-12-20T02:16:14;100551.56;;;9.62;72.38
72548;BME280;60570;50.848;6.776;2023-12-20T02:17:16;100552.38;;;9.62;72.18
72548;BME280;60570;50.848;6.776;2023-12-20T02:18:17;100557.94;;;9.62;72.29
72548;BME280;60570;50.848;6.776;2023-12-20T02:19:19;100549.94;;;9.61;72.14
72548;BME280;60570;50.848;6.776;2023-12-20T02:20:22;100561.84;;;9.61;72.17
72548;BME280;60570;50.848;6.776;2023-12-20T02:21:31;100554.66;;;9.60;72.08
72548;BME280;60570;50.848;6.776;2023-12-20T02:22:34;100567.41;;;9.61;71.91
72548;BME280;60570;50.848;6.776;2023-12-20T02:23:35;100565.75;;;9.60;71.97
72548;BME280;60570;50.848;6.776;2023-12-20T02:24:36;100570.97;;;9.62;72.19
72548;BME280;60570;50.848;6.776;2023-12-20T02:25:37;100566.25;;;9.62;72.13
72548;BME280;60570;50.848;6.776;2023-12-20T02:26:39;100575.72;;;9.61;72.06
72548;BME280;60570;50.848;6.776;2023-12-20T02:27:41;100567.72;;;9.60;72.22
72548;BME280;60570;50.848;6.776;2023-12-20T02:28:42;100566.91;;;9.59;71.99
72548;BME280;60570;50.848;6.776;2023-12-20T02:29:43;100566.59;;;9.61;71.85
72548;BME280;60570;50.848;6.776;2023-12-20T02:30:44;100561.84;;;9.61;72.05
72548;BME280;60570;50.848;6.776;2023-12-20T02:31:45;100557.44;;;9.60;72.00
72548;BME280;60570;50.848;6.776;2023-12-20T02:32:48;100562.66;;;9.62;72.25
72548;BME280;60570;50.848;6.776;2023-12-20T02:33:49;100562.97;;;9.60;71.75
72548;BME280;60570;50.848;6.776;2023-12-20T02:34:50;100566.91;;;9.59;72.25
72548;BME280;60570;50.848;6.776;2023-12-20T02:35:51;100562.16;;;9.60;71.94
72548;BME280;60570;50.848;6.776;2023-12-20T02:36:54;100565.75;;;9.60;72.23
72548;BME280;60570;50.848;6.776;2023-12-20T02:37:55;100570.97;;;9.62;71.83
72548;BME280;60570;50.848;6.776;2023-12-20T02:38:56;100572.47;;;9.59;71.92
72548;BME280;60570;50.848;6.776;2023-12-20T02:39:57;100573.94;;;9.57;71.67
72548;BME280;60570;50.848;6.776;2023-12-20T02:40:59;100575.88;;;9.56;72.02
72548;BME280;60570;50.848;6.776;2023-12-20T02:41:59;100574.75;;;9.57;72.07
72548;BME280;60570;50.848;6.776;2023-12-20T02:43:01;100578.66;;;9.56;72.14
72548;BME280;60570;50.848;6.776;2023-12-20T02:44:02;100579.97;;;9.59;71.73
72548;BME280;60570;50.848;6.776;2023-12-20T02:45:03;100578.34;;;9.58;71.69
72548;BME280;60570;50.848;6.776;2023-12-20T02:46:05;100585.50;;;9.59;71.79
72548;BME280;60570;50.848;6.776;2023-12-20T02:47:05;100581.91;;;9.58;71.65
72548;BME280;60570;50.848;6.776;2023-12-20T02:48:07;100582.72;;;9.59;71.87
72548;BME280;60570;50.848;6.776;2023-12-20T02:49:07;100582.72;;;9.59;71.95
72548;BME280;60570;50.848;6.776;2023-12-20T02:50:09;100576.84;;;9.60;71.72
72548;BME280;60570;50.848;6.776;2023-12-20T02:51:10;100577.69;;;9.61;71.76
72548;BME280;60570;50.848;6.776;2023-12-20T02:52:13;100581.56;;;9.60;71.99
72548;BME280;60570;50.848;6.776;2023-12-20T02:53:13;100582.41;;;9.60;71.61
72548;BME280;60570;50.848;6.776;2023-12-20T02:54:15;100583.22;;;9.61;71.76
72548;BME280;60570;50.848;6.776;2023-12-20T02:55:16;100574.91;;;9.61;71.68
72548;BME280;60570;50.848;6.776;2023-12-20T02:56:18;100575.72;;;9.61;71.67
72548;BME280;60570;50.848;6.776;2023-12-20T02:57:18;100569.34;;;9.61;71.76
72548;BME280;60570;50.848;6.776;2023-12-20T02:58:20;100577.69;;;9.61;71.68
72548;BME280;60570;50.848;6.776;2023-12-20T02:59:21;100574.56;;;9.62;71.80
72548;BME280;60570;50.848;6.776;2023-12-20T03:00:22;100575.38;;;9.63;71.65
72548;BME280;60570;50.848;6.776;2023-12-20T03:01:23;100578.16;;;9.63;71.48
72548;BME280;60570;50.848;6.776;2023-12-20T03:02:24;100574.91;;;9.61;71.81
72548;BME280;60570;50.848;6.776;2023-12-20T03:03:25;100578.50;;;9.61;71.55
72548;BME280;60570;50.848;6.776;2023-12-20T03:04:27;100576.38;;;9.58;71.91
72548;BME280;60570;50.848;6.776;2023-12-20T03:05:27;100584.34;;;9.60;71.84
72548;BME280;60570;50.848;6.776;2023-12-20T03:06:29;100571.31;;;9.60;71.68
72548;BME280;60570;50.848;6.776;2023-12-20T03:07:31;100588.78;;;9.61;71.61
72548;BME280;60570;50.848;6.776;2023-12-20T03:08:31;100579.63;;;9.60;71.65
72548;BME280;60570;50.848;6.776;2023-12-20T03:09:33;100580.94;;;9.63;71.65
72548;BME280;60570;50.848;6.776;2023-12-20T03:10:34;100580.44;;;9.61;71.72
72548;BME280;60570;50.848;6.776;2023-12-20T03:11:34;100577.34;;;9.62;71.59
72548;BME280;60570;50.848;6.776;2023-12-20T03:12:36;100575.38;;;9.63;71.55
72548;BME280;60570;50.848;6.776;2023-12-20T03:13:37;100579.00;;;9.63;71.44
72548;BME280;60570;50.848;6.776;2023-12-20T03:14:37;100578.16;;;9.63;71.59
72548;BME280;60570;50.848;6.776;2023-12-20T03:15:39;100578.66;;;9.65;71.63
72548;BME280;60570;50.848;6.776;2023-12-20T03:16:39;100579.78;;;9.64;71.45
72548;BME280;60570;50.848;6.776;2023-12-20T03:17:41;100576.53;;;9.62;71.70
72548;BME280;60570;50.848;6.776;2023-12-20T03:18:42;100573.25;;;9.60;71.39
72548;BME280;60570;50.848;6.776;2023-12-20T03:19:43;100576.53;;;9.62;71.75
72548;BME280;60570;50.848;6.776;2023-12-20T03:20:44;100569.03;;;9.62;71.81
72548;BME280;60570;50.848;6.776;2023-12-20T03:21:47;100567.06;;;9.63;71.73
72548;BME280;60570;50.848;6.776;2023-12-20T03:22:49;100570.97;;;9.62;71.55
72548;BME280;60570;50.848;6.776;2023-12-20T03:23:51;100568.38;;;9.57;71.77
72548;BME280;60570;50.848;6.776;2023-12-20T03:24:52;100572.78;;;9.58;71.44
72548;BME280;60570;50.848;6.776;2023-12-20T03:25:52;100568.53;;;9.60;71.62
72548;BME280;60570;50.848;6.776;2023-12-20T03:26:54;100567.41;;;9.61;71.37
72548;BME280;60570;50.848;6.776;2023-12-20T03:27:55;100568.19;;;9.62;71.65
72548;BME280;60570;50.848;6.776;2023-12-20T03:28:55;100573.25;;;9.60;71.67
72548;BME280;60570;50.848;6.776;2023-12-20T03:29:57;100569.34;;;9.61;71.66
72548;BME280;60570;50.848;6.776;2023-12-20T03:30:58;100561.38;;;9.59;71.62
72548;BME280;60570;50.848;6.776;2023-12-20T03:31:59;100565.75;;;9.60;71.76
72548;BME280;60570;50.848;6.776;2023-12-20T03:33:00;100572.94;;;9.61;71.36
72548;BME280;60570;50.848;6.776;2023-12-20T03:34:02;100576.22;;;9.63;71.65
72548;BME280;60570;50.848;6.776;2023-12-20T03:35:03;100579.00;;;9.63;71.75
72548;BME280;60570;50.848;6.776;2023-12-20T03:36:04;100579.00;;;9.63;71.53
72548;BME280;60570;50.848;6.776;2023-12-20T03:37:05;100572.63;;;9.63;71.32
72548;BME280;60570;50.848;6.776;2023-12-20T03:38:07;100573.44;;;9.63;71.44
72548;BME280;60570;50.848;6.776;2023-12-20T03:39:09;100577.81;;;9.64;71.38
72548;BME280;60570;50.848;6.776;2023-12-20T03:40:10;100575.72;;;9.61;71.28
72548;BME280;60570;50.848;6.776;2023-12-20T03:41:12;100574.91;;;9.61;71.62
72548;BME280;60570;50.848;6.776;2023-12-20T03:42:13;100564.47;;;9.58;71.68
72548;BME280;60570;50.848;6.776;2023-12-20T03:43:15;100567.72;;;9.60;71.63
72548;BME280;60570;50.848;6.776;2023-12-20T03:44:16;100565.75;;;9.60;71.48
72548;BME280;60570;50.848;6.776;2023-12-20T03:45:17;100562.97;;;9.60;71.71
72548;BME280;60570;50.848;6.776;2023-12-20T03:46:18;100559.38;;;9.60;71.48
72548;BME280;60570;50.848;6.776;2023-12-20T03:47:19;100561.38;;;9.59;71.48
72548;BME280;60570;50.848;6.776;2023-12-20T03:48:20;100557.28;;;9.57;71.63
72548;BME280;60570;50.848;6.776;2023-12-20T03:49:21;100558.09;;;9.57;71.75
72548;BME280;60570;50.848;6.776;2023-12-20T03:50:23;100559.38;;;9.60;71.42
72548;BME280;60570;50.848;6.776;2023-12-20T03:51:23;100566.09;;;9.59;71.73
72548;BME280;60570;50.848;6.776;2023-12-20T03:52:25;100566.91;;;9.59;71.31
72548;BME280;60570;50.848;6.776;2023-12-20T03:53:27;100564.16;;;9.59;71.40
72548;BME280;60570;50.848;6.776;2023-12-20T03:54:29;100558.94;;;9.58;71.83
72548;BME280;60570;50.848;6.776;2023-12-20T03:55:29;100568.03;;;9.58;71.51
72548;BME280;60570;50.848;6.776;2023-12-20T03:56:31;100567.25;;;9.58;71.55
72548;BME280;60570;50.848;6.776;2023-12-20T03:57:32;100570.31;;;9.56;71.46
72548;BME280;60570;50.848;6.776;2023-12-20T03:58:33;100567.56;;;9.56;71.52
72548;BME280;60570;50.848;6.776;2023-12-20T03:59:35;100568.38;;;9.57;71.52
72548;BME280;60570;50.848;6.776;2023-12-20T04:00:36;100563.66;;;9.57;71.58
72548;BME280;60570;50.848;6.776;2023-12-20T04:01:38;100567.25;;;9.58;71.48
72548;BME280;60570;50.848;6.776;2023-12-20T04:02:39;100565.94;;;9.55;71.43
72548;BME280;60570;50.848;6.776;2023-12-20T04:03:41;100565.59;;;9.57;71.46
72548;BME280;60570;50.848;6.776;2023-12-20T04:04:41;100569.19;;;9.57;71.56
72548;BME280;60570;50.848;6.776;2023-12-20T04:05:43;100567.25;;;9.58;71.19
72548;BME280;60570;50.848;6.776;2023-12-20T04:06:44;100564.47;;;9.58;71.20
72548;BME280;60570;50.848;6.776;2023-12-20T04:07:44;100565.59;;;9.57;71.53
72548;BME280;60570;50.848;6.776;2023-12-20T04:08:47;100567.56;;;9.56;71.18
72548;BME280;60570;50.848;6.776;2023-12-20T04:09:48;100568.03;;;9.58;71.69
72548;BME280;60570;50.848;6.776;2023-12-20T04:10:50;100567.72;;;9.60;71.59
72548;BME280;60570;50.848;6.776;2023-12-20T04:11:50;100562.16;;;9.60;71.60
72548;BME280;60570;50.848;6.776;2023-12-20T04:12:51;100567.25;;;9.58;71.31
72548;BME280;60570;50.848;6.776;2023-12-20T04:13:53;100571.47;;;9.55;71.49
72548;BME280;60570;50.848;6.776;2023-12-20T04:14:53;100567.56;;;9.56;71.70
72548;BME280;60570;50.848;6.776;2023-12-20T04:15:55;100575.38;;;9.54;71.36
72548;BME280;60570;50.848;6.776;2023-12-20T04:16:56;100565.13;;;9.55;71.49
72548;BME280;60570;50.848;6.776;2023-12-20T04:17:56;100565.94;;;9.55;71.29
72548;BME280;60570;50.848;6.776;2023-12-20T04:18:58;100564.00;;;9.56;71.51
72548;BME280;60570;50.848;6.776;2023-12-20T04:19:58;100563.16;;;9.55;71.47
72548;BME280;60570;50.848;6.776;2023-12-20T04:21:00;100558.75;;;9.54;71.71
72548;BME280;60570;50.848;6.776;2023-12-20T04:22:01;100563.16;;;9.55;71.68
72548;BME280;60570;50.848;6.776;2023-12-20T04:23:03;100552.41;;;9.54;71.41
72548;BME280;60570;50.848;6.776;2023-12-20T04:24:05;100558.44;;;9.56;71.35
72548;BME280;60570;50.848;6.776;2023-12-20T04:25:08;100557.63;;;9.55;71.49
72548;BME280;60570;50.848;6.776;2023-12-20T04:26:09;100567.06;;;9.54;71.71
72548;BME280;60570;50.848;6.776;2023-12-20T04:27:09;100561.38;;;9.51;71.41
72548;BME280;60570;50.848;6.776;2023-12-20T04:28:11;100565.78;;;9.52;71.58
72548;BME280;60570;50.848;6.776;2023-12-20T04:29:12;100568.72;;;9.55;71.32
72548;BME280;60570;50.848;6.776;2023-12-20T04:30:13;100563.50;;;9.54;71.28
72548;BME280;60570;50.848;6.776;2023-12-20T04:31:14;100564.28;;;9.54;71.71
72548;BME280;60570;50.848;6.776;2023-12-20T04:32:16;100563.16;;;9.55;71.18
72548;BME280;60570;50.848;6.776;2023-12-20T04:33:16;100560.25;;;9.52;71.55
72548;BME280;60570;50.848;6.776;2023-12-20T04:34:17;100571.31;;;9.52;71.71
72548;BME280;60570;50.848;6.776;2023-12-20T04:35:19;100575.38;;;9.54;71.40
72548;BME280;60570;50.848;6.776;2023-12-20T04:36:19;100568.72;;;9.55;71.52
72548;BME280;60570;50.848;6.776;2023-12-20T04:37:21;100573.44;;;9.55;71.63
72548;BME280;60570;50.848;6.776;2023-12-20T04:38:22;100565.44;;;9.53;71.47
72548;BME280;60570;50.848;6.776;2023-12-20T04:39:25;100575.72;;;9.53;71.23
72548;BME280;60570;50.848;6.776;2023-12-20T04:40:26;100568.22;;;9.53;71.52
72548;BME280;60570;50.848;6.776;2023-12-20T04:41:28;100576.53;;;9.53;71.49
72548;BME280;60570;50.848;6.776;2023-12-20T04:42:29;100580.94;;;9.54;71.40
72548;BME280;60570;50.848;6.776;2023-12-20T04:43:30;100574.09;;;9.52;71.30
72548;BME280;60570;50.848;6.776;2023-12-20T04:44:31;100581.25;;;9.53;71.55
72548;BME280;60570;50.848;6.776;2023-12-20T04:45:33;100579.66;;;9.52;71.44
72548;BME280;60570;50.848;6.776;2023-12-20T04:46:33;100581.59;;;9.51;71.44
72548;BME280;60570;50.848;6.776;2023-12-20T04:47:35;100582.09;;;9.53;71.40
72548;BME280;60570;50.848;6.776;2023-12-20T04:48:36;100580.28;;;9.49;71.35
72548;BME280;60570;50.848;6.776;2023-12-20T04:49:38;100591.03;;;9.50;71.52
72548;BME280;60570;50.848;6.776;2023-12-20T04:50:38;100593.81;;;9.50;71.60
72548;BME280;60570;50.848;6.776;2023-12-20T04:51:40;100599.34;;;9.50;71.30
72548;BME280;60570;50.848;6.776;2023-12-20T04:52:41;100592.19;;;9.49;71.46
72548;BME280;60570;50.848;6.776;2023-12-20T04:53:43;100580.28;;;9.49;71.33
72548;BME280;60570;50.848;6.776;2023-12-20T04:54:45;100587.78;;;9.48;71.39
72548;BME280;60570;50.848;6.776;2023-12-20T04:55:46;100585.00;;;9.48;71.66
72548;BME280;60570;50.848;6.776;2023-12-20T04:56:47;100584.22;;;9.48;71.59
72548;BME280;60570;50.848;6.776;2023-12-20T04:57:49;100590.25;;;9.50;71.38
72548;BME280;60570;50.848;6.776;2023-12-20T04:58:49;100583.53;;;9.51;71.10
72548;BME280;60570;50.848;6.776;2023-12-20T04:59:51;100588.59;;;9.49;71.34
72548;BME280;60570;50.848;6.776;2023-12-20T05:00:52;100577.03;;;9.47;71.39
72548;BME280;60570;50.848;6.776;2023-12-20T05:01:53;100580.94;;;9.46;71.42
72548;BME280;60570;50.848;6.776;2023-12-20T05:02:54;100589.75;;;9.48;71.52
72548;BME280;60570;50.848;6.776;2023-12-20T05:03:56;100585.84;;;9.49;71.41
72548;BME280;60570;50.848;6.776;2023-12-20T05:04:56;100578.34;;;9.49;71.34
72548;BME280;60570;50.848;6.776;2023-12-20T05:05:57;100584.50;;;9.46;71.57
72548;BME280;60570;50.848;6.776;2023-12-20T05:06:59;100590.06;;;9.46;71.25
72548;BME280;60570;50.848;6.776;2023-12-20T05:07:59;100587.28;;;9.46;71.38
72548;BME280;60570;50.848;6.776;2023-12-20T05:09:01;100585.00;;;9.48;71.31
72548;BME280;60570;50.848;6.776;2023-12-20T05:10:04;100588.13;;;9.47;71.38
72548;BME280;60570;50.848;6.776;2023-12-20T05:11:07;100588.94;;;9.47;71.21
72548;BME280;60570;50.848;6.776;2023-12-20T05:12:08;100585.69;;;9.45;71.63
72548;BME280;60570;50.848;6.776;2023-12-20T05:13:10;100586.00;;;9.44;71.46
72548;BME280;60570;50.848;6.776;2023-12-20T05:14:11;100582.06;;;9.45;71.34
72548;BME280;60570;50.848;6.776;2023-12-20T05:15:12;100585.69;;;9.45;71.50
72548;BME280;60570;50.848;6.776;2023-12-20T05:16:13;100588.44;;;9.45;71.20
72548;BME280;60570;50.848;6.776;2023-12-20T05:17:17;100572.63;;;9.46;71.45
72548;BME280;60570;50.848;6.776;2023-12-20T05:18:20;100580.13;;;9.45;71.42
72548;BME280;60570;50.848;6.776;2023-12-20T05:19:21;100582.56;;;9.47;71.42
72548;BME280;60570;50.848;6.776;2023-12-20T05:20:22;100578.47;;;9.44;71.70
72548;BME280;60570;50.848;6.776;2023-12-20T05:21:23;100582.06;;;9.45;71.46
72548;BME280;60570;50.848;6.776;2023-12-20T05:22:24;100583.22;;;9.44;71.42
72548;BME280;60570;50.848;6.776;2023-12-20T05:23:25;100581.25;;;9.44;71.34
72548;BME280;60570;50.848;6.776;2023-12-20T05:24:26;100579.31;;;9.45;71.52